Desert Hot Springs, CA

5:19 PM PDT on May 23, 2017 (GMT -0700)
Larsen Lane | | Change Station

Elev 1047 ft 33.88 °N, 116.34 °W | Updated 2 minutes ago

Clear
Clear
104.2 °F
Feels Like 100 °F
N
10.0
Wind Variable Wind from WNW
Gusts 19.0 mph

Today
High -- | Low -- °F
--% Chance of Precip.
Yesterday
High -- | Low -- °F
Precip. -- in
Pressure 29.73 in
Visibility 10.0 miles
Clouds Clear
Heat Index 100 °F
Dew Point 46 °F
Humidity 14%
Rainfall 0.00 in
Snow Depth Not available.
5:38 AM 7:45 PM
Waning Crescent, 5% visible
SPECI KPSP 240015Z 32010G15KT 10SM CLR 42/04 A2973 RMK AO2 T04220044
Pressure 29.73 in
Visibility 10.0 miles
Clouds Clear
Heat Index 100 °F
Dew Point 46 °F
Humidity 14%
Rainfall 0.00 in
Snow Depth Not available.
5:38 AM 7:45 PM
Waning Crescent, 5% visible
SPECI KPSP 240015Z 32010G15KT 10SM CLR 42/04 A2973 RMK AO2 T04220044

Get Severe Weather Alerts

Thanks for signing up!

Be on the lookout for a verification email in your inbox.

You'll start receiving the daily forecast at 6 AM.

×

10-Day Weather Forecast

Almanac

Astronomy

May. 23, 2017 Rise Set
Actual Time
Civil Twilight
Nautical Twilight
Astronomical Twilight
Moon
Length of Visible Light
Length of Day
Tomorrow will be .
, % of the Moon is Illuminated

Today's Extremes

State Highs State Lows

Community

WunderPhotos

Category 6

Welcome to Category 6. This is the collective home for Weather Underground's featured writeups by Dr. Jeff Masters (right), Bob Henson (left), Chris Burt, and other regular contributors.

Nearby

Air Quality

  Air Quality AQ Index Pollutant
Not available.

Snow Depth

Station Depth Elevation

Earthquake Activity

City Distance Mag. Time & Date
Minimum magnitude displayed is 2.5.

Coastal Water Temperatures

Place Temperature

Stations

Nearby Weather Stations

Station Location Temp. Windchill Dew Point Humidity Wind Precip. Elev Updated Type
                   

Watches & Warnings

There are currently no watches in effect.